Time;durP1;ratioP1;P1;durP2;ratioP2;P2;SDS_P1;SDS_P2;PMS_P1;PMS_P2;Temp;Humidity;BMP_temperature;BMP_pressure;BME280_temperature;BME280_humidity;BME280_pressure;Samples;Min_cycle;Max_cycle;Signal;HPM_P1;HPM_P2
2023/03/31 00:01:14;;;;;;;;;;;;;;;5.10;64.23;99530.50;4989905;28;4934;-79
2023/03/31 00:04:07;;;;;;;;;;;;;;;5.12;64.16;99524.97;4991113;28;4964;-79
2023/03/31 00:06:58;;;;;;;;;;;;;;;5.10;64.15;99529.69;4989765;28;4959;-77
2023/03/31 00:09:53;;;;;;;;;;;;;;;5.07;64.32;99524.78;4986752;28;5142;-79
2023/03/31 00:12:45;;;;;;;;;;;;;;;5.11;64.15;99531.34;4986869;28;5013;-78
2023/03/31 00:15:36;;;;;;;;;;;;;;;5.13;63.96;99523.94;4986281;28;4565;-79
2023/03/31 00:18:28;;;;;;;;;;;;;;;5.16;63.91;99523.53;4986433;28;4886;-77
2023/03/31 00:21:32;;;;;;;;;;;;;;;5.14;64.21;99531.72;4986250;28;4854;-77
2023/03/31 00:24:23;;;;;;;;;;;;;;;5.19;63.79;99529.25;4985933;28;5122;-79
2023/03/31 00:27:15;;;;;;;;;;;;;;;5.17;63.93;99533.16;4988682;28;4776;-79
2023/03/31 00:30:07;;;;;;;;;;;;;;;5.11;64.13;99532.16;4988498;28;4890;-80
2023/03/31 00:33:00;;;;;;;;;;;;;;;5.14;63.95;99529.06;4988056;28;5229;-78
2023/03/31 00:35:51;;;;;;;;;;;;;;;5.20;63.78;99525.56;4984265;28;5227;-79
2023/03/31 00:38:45;;;;;;;;;;;;;;;5.14;64.02;99529.06;4969809;28;5019;-79
2023/03/31 00:41:37;;;;;;;;;;;;;;;5.19;63.91;99526.59;4969976;28;4919;-78
2023/03/31 00:44:29;;;;;;;;;;;;;;;5.15;63.97;99524.56;4965455;28;4910;-79
2023/03/31 00:47:21;;;;;;;;;;;;;;;5.18;64.08;99510.78;4967541;28;4901;-79
2023/03/31 00:50:13;;;;;;;;;;;;;;;5.21;63.82;99510.38;4966129;28;4857;-78
2023/03/31 00:53:04;;;;;;;;;;;;;;;5.22;63.68;99514.69;4960589;28;5009;-79
2023/03/31 00:55:56;;;;;;;;;;;;;;;5.20;63.84;99524.72;4965282;28;5071;-79
2023/03/31 00:58:49;;;;;;;;;;;;;;;5.17;63.69;99527.81;4970312;28;5035;-76
2023/03/31 01:01:41;;;;;;;;;;;;;;;5.15;63.98;99517.38;4971445;28;5071;-79
2023/03/31 01:04:32;;;;;;;;;;;;;;;5.17;63.85;99519.81;4968062;28;4925;-80
2023/03/31 01:07:25;;;;;;;;;;;;;;;5.11;64.04;99521.47;4967705;28;5143;-79
2023/03/31 01:10:16;;;;;;;;;;;;;;;5.15;63.87;99527.22;4966524;28;5023;-79
2023/03/31 01:13:08;;;;;;;;;;;;;;;5.20;63.75;99517.53;4967201;28;4932;-78
2023/03/31 01:15:59;;;;;;;;;;;;;;;5.20;63.65;99516.72;4966939;28;5048;-79
2023/03/31 01:18:51;;;;;;;;;;;;;;;5.20;63.71;99514.88;4964664;28;4876;-80
2023/03/31 01:21:46;;;;;;;;;;;;;;;5.19;63.83;99515.09;4970080;28;5057;-79
2023/03/31 01:24:37;;;;;;;;;;;;;;;5.13;63.93;99518.59;4966308;28;4932;-79
2023/03/31 01:27:28;;;;;;;;;;;;;;;5.16;63.78;99511.00;4966959;28;4455;-79
2023/03/31 01:30:20;;;;;;;;;;;;;;;5.16;63.91;99507.50;4965655;28;4896;-79
2023/03/31 01:33:12;;;;;;;;;;;;;;;5.21;63.73;99510.38;4967680;28;5067;-79
2023/03/31 01:36:05;;;;;;;;;;;;;;;5.15;63.91;99498.69;4966507;28;5056;-78
2023/03/31 01:38:57;;;;;;;;;;;;;;;5.18;63.81;99508.13;4969172;28;6820;-78
2023/03/31 01:41:50;;;;;;;;;;;;;;;5.13;63.90;99507.94;4966400;28;4983;-77
2023/03/31 01:44:41;;;;;;;;;;;;;;;5.09;64.01;99507.53;4962431;28;5023;-80
2023/03/31 01:47:33;;;;;;;;;;;;;;;5.08;64.36;99511.22;4969514;28;4977;-78
2023/03/31 01:50:24;;;;;;;;;;;;;;;5.06;64.43;99501.78;4967105;28;4910;-79
2023/03/31 01:53:16;;;;;;;;;;;;;;;5.10;64.18;99514.50;4968117;28;4794;-79
2023/03/31 01:56:09;;;;;;;;;;;;;;;5.07;64.07;99512.25;4966903;28;4795;-79
2023/03/31 01:59:01;;;;;;;;;;;;;;;5.14;64.04;99506.88;4966223;28;5098;-78
2023/03/31 02:01:54;;;;;;;;;;;;;;;5.06;64.26;99515.97;4965847;28;5015;-78
2023/03/31 02:04:45;;;;;;;;;;;;;;;5.03;64.29;99505.72;4966665;28;5053;-79
2023/03/31 02:07:38;;;;;;;;;;;;;;;5.05;64.26;99502.81;4966587;28;4928;-78
2023/03/31 02:10:30;;;;;;;;;;;;;;;5.05;64.02;99500.97;4964427;28;5007;-78
2023/03/31 02:13:22;;;;;;;;;;;;;;;5.03;64.23;99500.38;4964431;28;5298;-79
2023/03/31 02:16:15;;;;;;;;;;;;;;;5.12;63.93;99498.28;4961819;28;4950;-79
2023/03/31 02:19:08;;;;;;;;;;;;;;;5.04;64.06;99507.34;4968640;28;5112;-78
2023/03/31 02:22:00;;;;;;;;;;;;;;;5.06;64.08;99509.78;4968254;28;5035;-78
2023/03/31 02:24:51;;;;;;;;;;;;;;;5.09;64.04;99512.03;4967745;28;5058;-79
2023/03/31 02:27:44;;;;;;;;;;;;;;;5.14;63.91;99506.88;4964167;28;4924;-78
2023/03/31 02:30:36;;;;;;;;;;;;;;;5.05;64.22;99516.16;4964489;28;4988;-77
2023/03/31 02:33:27;;;;;;;;;;;;;;;5.06;64.16;99515.97;4965459;28;6874;-78
2023/03/31 02:36:20;;;;;;;;;;;;;;;5.09;64.00;99523.56;4964320;28;5285;-77
2023/03/31 02:39:12;;;;;;;;;;;;;;;5.08;64.00;99519.22;4966379;28;4952;-80
2023/03/31 02:42:06;;;;;;;;;;;;;;;5.09;64.03;99509.34;4954384;28;4718;-78
2023/03/31 02:44:57;;;;;;;;;;;;;;;5.08;64.31;99515.75;4954879;28;4835;-80
2023/03/31 02:47:50;;;;;;;;;;;;;;;5.08;64.04;99521.88;4955876;28;4758;-76
2023/03/31 02:50:42;;;;;;;;;;;;;;;5.06;64.15;99517.78;4950349;28;4909;-80
2023/03/31 02:53:34;;;;;;;;;;;;;;;5.01;64.22;99521.91;4950425;28;4683;-79
2023/03/31 02:56:26;;;;;;;;;;;;;;;5.07;64.09;99522.13;4951150;28;4504;-79
2023/03/31 02:59:18;;;;;;;;;;;;;;;5.06;64.21;99518.63;4955438;28;4931;-77
2023/03/31 03:02:10;;;;;;;;;;;;;;;5.08;64.11;99507.72;4954994;28;4599;-79
2023/03/31 03:05:02;;;;;;;;;;;;;;;5.10;64.08;99524.38;4951042;28;4621;-78
2023/03/31 03:07:54;;;;;;;;;;;;;;;5.08;64.18;99521.88;4953900;28;4390;-78
2023/03/31 03:10:45;;;;;;;;;;;;;;;5.01;64.36;99523.75;4952010;28;4887;-79
2023/03/31 03:13:37;;;;;;;;;;;;;;;5.07;64.65;99517.59;4951810;28;4682;-76
2023/03/31 03:16:29;;;;;;;;;;;;;;;5.09;63.96;99518.22;4960302;28;4742;-78
2023/03/31 03:19:20;;;;;;;;;;;;;;;5.09;64.09;99520.03;4951646;28;4058;-80
2023/03/31 03:22:12;;;;;;;;;;;;;;;5.08;64.02;99519.22;4953849;28;4953;-79
2023/03/31 03:25:05;;;;;;;;;;;;;;;5.14;64.25;99526.38;4972394;28;4697;-78
2023/03/31 03:27:57;;;;;;;;;;;;;;;5.16;63.59;99527.00;4968732;28;5079;-79
2023/03/31 03:30:49;;;;;;;;;;;;;;;5.15;63.75;99525.38;4955584;28;4979;-78
2023/03/31 03:33:40;;;;;;;;;;;;;;;5.16;63.92;99524.34;4954133;28;4858;-78
2023/03/31 03:36:33;;;;;;;;;;;;;;;5.14;63.88;99521.06;4952370;28;4655;-79
2023/03/31 03:39:29;;;;;;;;;;;;;;;5.12;64.13;99523.13;4951310;28;4519;-79
2023/03/31 03:42:21;;;;;;;;;;;;;;;5.21;63.67;99518.38;4950395;28;4423;-79
2023/03/31 03:45:13;;;;;;;;;;;;;;;5.17;63.77;99520.63;4954669;28;4881;-79
2023/03/31 03:48:05;;;;;;;;;;;;;;;5.20;63.67;99524.72;4952985;28;4925;-78
2023/03/31 03:50:57;;;;;;;;;;;;;;;5.24;63.51;99523.31;4950379;28;4684;-79
2023/03/31 03:53:49;;;;;;;;;;;;;;;5.13;63.92;99522.09;4952085;28;4787;-79
2023/03/31 03:56:41;;;;;;;;;;;;;;;5.31;63.33;99517.94;4955714;28;3993;-80
2023/03/31 03:59:33;;;;;;;;;;;;;;;5.24;63.55;99517.97;4958630;28;5329;-80
2023/03/31 04:02:27;;;;;;;;;;;;;;;5.24;63.54;99525.97;4957126;28;5021;-78
2023/03/31 04:05:18;;;;;;;;;;;;;;;5.23;63.70;99521.66;4950344;28;4737;-78
2023/03/31 04:08:10;;;;;;;;;;;;;;;5.32;63.45;99524.91;4961586;28;4976;-78
2023/03/31 04:11:02;;;;;;;;;;;;;;;5.26;63.51;99528.41;4959724;28;4948;-78
2023/03/31 04:13:54;;;;;;;;;;;;;;;5.23;63.57;99524.31;4965753;28;4807;-77
2023/03/31 04:16:47;;;;;;;;;;;;;;;5.18;63.70;99532.16;4967681;28;4928;-77
2023/03/31 04:19:41;;;;;;;;;;;;;;;5.23;63.54;99530.50;4969354;28;4860;-77
2023/03/31 04:22:34;;;;;;;;;;;;;;;5.18;63.93;99529.47;4970311;28;4880;-78
2023/03/31 04:25:29;;;;;;;;;;;;;;;5.31;63.60;99520.59;4971006;28;4956;-78
2023/03/31 04:28:21;;;;;;;;;;;;;;;5.29;63.77;99530.66;4967392;28;4995;-77
2023/03/31 04:31:14;;;;;;;;;;;;;;;5.34;63.37;99536.19;4965515;28;5395;-79
2023/03/31 04:34:12;;;;;;;;;;;;;;;5.32;63.26;99535.59;4968632;28;4972;-78
2023/03/31 04:37:03;;;;;;;;;;;;;;;5.29;63.67;99539.50;4967057;28;5027;-79
2023/03/31 04:39:55;;;;;;;;;;;;;;;5.36;63.28;99529.63;4967201;28;5014;-78
2023/03/31 04:42:46;;;;;;;;;;;;;;;5.40;62.95;99533.50;4964660;28;4780;-79
2023/03/31 04:45:37;;;;;;;;;;;;;;;5.39;63.22;99531.88;4970582;28;5126;-78
2023/03/31 04:48:30;;;;;;;;;;;;;;;5.43;63.22;99541.09;4962281;28;4912;-80
2023/03/31 04:51:22;;;;;;;;;;;;;;;5.35;63.39;99545.84;4951429;28;4439;-79
2023/03/31 04:54:13;;;;;;;;;;;;;;;5.30;63.56;99546.50;4954323;28;4446;-79
2023/03/31 04:57:06;;;;;;;;;;;;;;;5.37;63.37;99538.44;4955075;28;4494;-79
2023/03/31 04:59:58;;;;;;;;;;;;;;;5.35;63.57;99551.19;4955802;28;4511;-78
2023/03/31 05:02:50;;;;;;;;;;;;;;;5.41;63.29;99537.00;4958859;28;4898;-77
2023/03/31 05:05:41;;;;;;;;;;;;;;;5.42;63.15;99546.66;4966399;28;4944;-77
2023/03/31 05:08:33;;;;;;;;;;;;;;;5.39;63.07;99545.22;4964863;28;4823;-76
2023/03/31 05:11:25;;;;;;;;;;;;;;;5.36;63.36;99553.66;4965376;28;4845;-78
2023/03/31 05:14:16;;;;;;;;;;;;;;;5.32;63.55;99555.09;4957056;28;4917;-78
2023/03/31 05:17:08;;;;;;;;;;;;;;;5.47;63.07;99550.34;4955292;28;4443;-79
2023/03/31 05:20:00;;;;;;;;;;;;;;;5.43;63.10;99549.09;4956371;28;3783;-78
2023/03/31 05:22:52;;;;;;;;;;;;;;;5.46;63.01;99555.88;4953744;28;5276;-78
2023/03/31 05:25:44;;;;;;;;;;;;;;;5.43;63.32;99562.47;4955650;28;4782;-77
2023/03/31 05:28:36;;;;;;;;;;;;;;;5.50;63.04;99561.63;4952253;28;4543;-76
2023/03/31 05:31:28;;;;;;;;;;;;;;;5.48;63.11;99569.84;4955200;28;4634;-78
2023/03/31 05:34:20;;;;;;;;;;;;;;;5.39;63.35;99571.94;4965407;28;4975;-77
2023/03/31 05:37:11;;;;;;;;;;;;;;;5.43;63.15;99572.31;4958487;28;4685;-78
2023/03/31 05:40:04;;;;;;;;;;;;;;;5.32;63.69;99572.97;4968497;28;5024;-78
2023/03/31 05:42:55;;;;;;;;;;;;;;;5.40;63.31;99575.41;4967974;28;5051;-77
2023/03/31 05:45:46;;;;;;;;;;;;;;;5.35;63.65;99575.22;4968070;28;5266;-78
2023/03/31 05:48:38;;;;;;;;;;;;;;;5.33;63.67;99586.13;4968314;28;5000;-78
2023/03/31 05:51:30;;;;;;;;;;;;;;;5.36;63.41;99591.03;4968920;28;5230;-77
2023/03/31 05:54:22;;;;;;;;;;;;;;;5.33;63.72;99585.31;4961626;28;4868;-76
2023/03/31 05:57:15;;;;;;;;;;;;;;;5.39;63.28;99577.28;4966740;28;5118;-78
2023/03/31 06:00:10;;;;;;;;;;;;;;;5.34;63.58;99579.75;4962707;28;4887;-76
2023/03/31 06:03:02;;;;;;;;;;;;;;;5.43;63.36;99581.16;4963291;28;4823;-78
2023/03/31 06:05:54;;;;;;;;;;;;;;;5.37;63.30;99573.97;4968293;28;4932;-76
2023/03/31 06:08:46;;;;;;;;;;;;;;;5.35;63.36;99568.03;4969075;28;4854;-77
2023/03/31 06:11:38;;;;;;;;;;;;;;;5.35;63.57;99568.03;4967483;28;5150;-77
2023/03/31 06:14:30;;;;;;;;;;;;;;;5.37;63.36;99578.50;4969955;28;5194;-79
2023/03/31 06:17:22;;;;;;;;;;;;;;;5.38;63.32;99570.31;4965312;28;5079;-77
2023/03/31 06:20:16;;;;;;;;;;;;;;;5.30;63.51;99567.84;4957575;28;4899;-78
2023/03/31 06:23:12;;;;;;;;;;;;;;;5.37;63.21;99579.31;4951291;28;4530;-76
2023/03/31 06:26:03;;;;;;;;;;;;;;;5.39;63.12;99590.63;4957967;28;4904;-78
2023/03/31 06:28:55;;;;;;;;;;;;;;;5.39;63.24;99595.97;4950790;28;4614;-77
2023/03/31 06:31:47;;;;;;;;;;;;;;;5.33;63.51;99596.81;4950939;28;4553;-78
2023/03/31 06:34:39;;;;;;;;;;;;;;;5.37;63.36;99610.56;4950860;28;4723;-77
2023/03/31 06:37:31;;;;;;;;;;;;;;;5.31;63.38;99606.88;4951330;28;4375;-79
2023/03/31 06:40:25;;;;;;;;;;;;;;;5.31;63.51;99606.03;4958416;28;4900;-79
2023/03/31 06:43:17;;;;;;;;;;;;;;;5.32;63.67;99610.34;4952674;28;4741;-79
2023/03/31 06:46:09;;;;;;;;;;;;;;;5.34;63.54;99606.44;4950185;28;4566;-80
2023/03/31 06:49:01;;;;;;;;;;;;;;;5.29;63.61;99608.09;4951324;28;4834;-75
2023/03/31 06:51:53;;;;;;;;;;;;;;;5.28;63.59;99612.63;4951005;28;4690;-76
2023/03/31 06:54:45;;;;;;;;;;;;;;;5.25;63.51;99597.00;4952001;28;4567;-78
2023/03/31 06:57:37;;;;;;;;;;;;;;;5.23;63.72;99607.91;4950745;28;4828;-77
2023/03/31 07:00:29;;;;;;;;;;;;;;;5.32;63.37;99613.03;4949732;28;4785;-80
2023/03/31 07:03:23;;;;;;;;;;;;;;;5.29;63.69;99613.44;4958364;28;4775;-80
2023/03/31 07:06:14;;;;;;;;;;;;;;;5.30;63.32;99607.91;4949037;28;4475;-80
2023/03/31 07:09:06;;;;;;;;;;;;;;;5.29;63.45;99611.56;4951415;28;4827;-78
2023/03/31 07:11:58;;;;;;;;;;;;;;;5.27;63.58;99612.84;4952217;28;4857;-79
2023/03/31 07:14:50;;;;;;;;;;;;;;;5.23;63.77;99617.75;4951774;28;4735;-77
2023/03/31 07:17:42;;;;;;;;;;;;;;;5.22;63.74;99610.78;4951221;28;4035;-79
2023/03/31 07:20:34;;;;;;;;;;;;;;;3.31;59.60;99618.09;4951445;28;4636;-79
2023/03/31 07:23:25;;;;;;;;;;;;;;;4.65;61.04;99612.25;4951631;28;4434;-78
2023/03/31 07:26:17;;;;;;;;;;;;;;;4.12;59.32;99610.28;4955137;28;4764;-78
2023/03/31 07:29:09;;;;;;;;;;;;;;;4.78;59.20;99623.72;4967083;28;4629;-78
2023/03/31 07:32:01;;;;;;;;;;;;;;;4.26;60.03;99529.31;4970462;28;4974;-79
2023/03/31 07:34:53;;;;;;;;;;;;;;;4.95;60.24;99628.66;4969440;28;5136;-77
2023/03/31 07:37:45;;;;;;;;;;;;;;;5.05;60.32;99630.91;4968169;28;5374;-76
2023/03/31 07:40:37;;;;;;;;;;;;;;;5.13;60.55;99633.38;4967936;28;4743;-78
2023/03/31 07:43:29;;;;;;;;;;;;;;;5.06;61.11;99644.06;4968985;28;5021;-79
2023/03/31 07:46:21;;;;;;;;;;;;;;;5.08;61.16;99647.34;4967979;28;5041;-78
2023/03/31 07:49:14;;;;;;;;;;;;;;;5.07;61.63;99644.88;4967831;28;5159;-77
2023/03/31 07:52:05;;;;;;;;;;;;;;;5.07;61.76;99647.56;4967650;28;5049;-78
2023/03/31 07:54:57;;;;;;;;;;;;;;;5.12;61.68;99647.78;4969006;28;4871;-77
2023/03/31 07:57:50;;;;;;;;;;;;;;;5.05;62.21;99652.28;4969835;28;5011;-79
2023/03/31 08:00:42;;;;;;;;;;;;;;;5.06;62.13;99648.56;4968088;28;5201;-78
2023/03/31 08:03:34;;;;;;;;;;;;;;;5.08;62.19;99651.84;4967604;28;5137;-78
2023/03/31 08:06:26;;;;;;;;;;;;;;;5.04;62.45;99643.44;4967580;28;5217;-78
2023/03/31 08:09:18;;;;;;;;;;;;;;;5.06;62.49;99644.06;4965851;28;5113;-78
2023/03/31 08:12:10;;;;;;;;;;;;;;;5.08;62.52;99646.53;4966781;28;4859;-78
2023/03/31 08:15:02;;;;;;;;;;;;;;;5.03;62.68;99643.63;4966618;28;5010;-78
2023/03/31 08:17:54;;;;;;;;;;;;;;;5.08;62.54;99651.84;4967495;28;5124;-77
2023/03/31 08:20:48;;;;;;;;;;;;;;;4.99;63.02;99654.72;4968869;28;4842;-77
2023/03/31 08:23:40;;;;;;;;;;;;;;;4.98;63.06;99655.75;4969899;28;5203;-79
2023/03/31 08:26:33;;;;;;;;;;;;;;;5.05;63.12;99657.59;4965744;28;4944;-78
2023/03/31 08:29:25;;;;;;;;;;;;;;;5.07;62.90;99651.03;4966053;28;5394;-79
2023/03/31 08:32:17;;;;;;;;;;;;;;;5.04;63.08;99655.97;4967372;28;4986;-78
2023/03/31 08:35:09;;;;;;;;;;;;;;;5.05;63.13;99652.28;4967667;28;5109;-78
2023/03/31 08:38:01;;;;;;;;;;;;;;;5.04;63.08;99653.31;4961740;28;4955;-79
2023/03/31 08:40:53;;;;;;;;;;;;;;;5.04;63.20;99664.81;4954652;28;4860;-78
2023/03/31 08:43:45;;;;;;;;;;;;;;;5.04;63.18;99651.44;4955408;28;4828;-78
2023/03/31 08:46:37;;;;;;;;;;;;;;;5.05;63.14;99653.09;4952795;28;4860;-80
2023/03/31 08:49:29;;;;;;;;;;;;;;;5.05;63.32;99653.09;4963844;28;4980;-76
2023/03/31 08:52:22;;;;;;;;;;;;;;;5.06;nan;99656.56;4959735;28;5137;-77
2023/03/31 08:55:14;;;;;;;;;;;;;;;5.03;63.59;99657.81;4952248;28;5089;-78
2023/03/31 08:58:06;;;;;;;;;;;;;;;5.04;63.42;99661.31;4962467;28;5131;-78
2023/03/31 09:00:58;;;;;;;;;;;;;;;5.02;63.21;99658.84;4967321;28;5310;-79
2023/03/31 09:03:51;;;;;;;;;;;;;;;5.03;63.53;99654.31;4967334;28;4880;-79
2023/03/31 09:06:42;;;;;;;;;;;;;;;5.03;63.52;99652.50;4967494;28;5089;-79
2023/03/31 09:09:34;;;;;;;;;;;;;;;5.04;63.42;99659.47;4966229;28;5212;-79
2023/03/31 09:12:26;;;;;;;;;;;;;;;5.02;63.41;99656.16;4967317;28;5163;-78
2023/03/31 09:15:18;;;;;;;;;;;;;;;5.02;63.35;99656.16;4965953;28;5050;-77
2023/03/31 09:18:10;;;;;;;;;;;;;;;5.07;63.30;99658.22;4966600;28;5030;-77
2023/03/31 09:21:02;;;;;;;;;;;;;;;5.03;63.45;99654.31;4967847;28;5006;-79
2023/03/31 09:23:56;;;;;;;;;;;;;;;5.09;63.34;99661.50;4968881;28;5038;-76
2023/03/31 09:26:47;;;;;;;;;;;;;;;5.02;63.52;99656.16;4964194;28;4976;-79
2023/03/31 09:29:38;;;;;;;;;;;;;;;5.05;63.38;99658.41;4957338;28;5108;-79
2023/03/31 09:32:33;;;;;;;;;;;;;;;5.06;63.61;99653.91;4952418;28;4079;-78
2023/03/31 09:35:25;;;;;;;;;;;;;;;5.09;63.34;99648.16;4954440;28;4796;-79
2023/03/31 09:38:16;;;;;;;;;;;;;;;5.06;63.37;99661.91;4956811;28;4951;-77
2023/03/31 09:41:08;;;;;;;;;;;;;;;5.07;63.65;99664.38;4962776;28;5025;-79
2023/03/31 09:44:00;;;;;;;;;;;;;;;5.07;63.51;99663.56;4967324;28;5052;-78
2023/03/31 09:46:52;;;;;;;;;;;;;;;5.09;63.26;99662.34;4955795;28;4982;-78
2023/03/31 09:49:47;;;;;;;;;;;;;;;5.08;63.36;99663.34;4957923;28;4767;-79
2023/03/31 09:52:39;;;;;;;;;;;;;;;5.07;63.69;99666.25;4966392;28;4872;-77
2023/03/31 09:55:31;;;;;;;;;;;;;;;5.08;63.94;99662.53;4950812;28;5260;-78
2023/03/31 09:58:24;;;;;;;;;;;;;;;5.09;63.55;99664.16;4949789;28;4606;-76
2023/03/31 10:01:15;;;;;;;;;;;;;;;5.09;63.54;99659.69;4953771;28;4586;-79
2023/03/31 10:04:07;;;;;;;;;;;;;;;5.08;63.55;99662.53;4961462;28;4851;-79
2023/03/31 10:06:59;;;;;;;;;;;;;;;5.14;63.53;99661.72;4966327;28;5137;-79
2023/03/31 10:09:51;;;;;;;;;;;;;;;5.13;63.47;99666.22;4964238;28;5109;-78
2023/03/31 10:12:42;;;;;;;;;;;;;;;5.09;63.59;99658.81;4966525;28;5037;-77
2023/03/31 10:15:34;;;;;;;;;;;;;;;5.11;63.52;99660.28;4965059;28;5029;-76
2023/03/31 10:18:26;;;;;;;;;;;;;;;5.10;63.58;99653.28;4969097;28;5026;-77
2023/03/31 10:21:18;;;;;;;;;;;;;;;5.16;63.58;99651.66;4965968;28;5141;-77
2023/03/31 10:24:10;;;;;;;;;;;;;;;5.13;63.48;99650.22;4965600;28;5137;-78
2023/03/31 10:27:01;;;;;;;;;;;;;;;5.10;63.63;99653.28;4965783;28;5145;-78
2023/03/31 10:29:53;;;;;;;;;;;;;;;5.13;63.49;99655.56;4966365;28;5037;-77
2023/03/31 10:32:45;;;;;;;;;;;;;;;5.12;63.54;99659.25;4966214;28;5096;-74
2023/03/31 10:35:37;;;;;;;;;;;;;;;5.14;63.58;99656.38;4966240;28;4801;-77
2023/03/31 10:38:29;;;;;;;;;;;;;;;5.13;63.69;99662.75;4987348;28;5080;-78
2023/03/31 10:41:21;;;;;;;;;;;;;;;5.16;63.49;99667.66;4988106;28;5048;-77
2023/03/31 10:44:14;;;;;;;;;;;;;;;5.15;63.55;99658.03;4988902;28;5162;-78
2023/03/31 10:47:05;;;;;;;;;;;;;;;5.16;63.55;99660.47;4987026;28;5113;-77
2023/03/31 10:49:57;;;;;;;;;;;;;;;5.16;63.53;99663.16;4987138;28;5079;-77
2023/03/31 10:52:49;;;;;;;;;;;;;;;5.15;63.65;99655.38;4987076;28;5278;-76
2023/03/31 10:55:40;;;;;;;;;;;;;;;5.18;63.63;99661.09;4986316;28;4992;-79
2023/03/31 10:58:33;;;;;;;;;;;;;;;5.20;63.54;99656.34;4987544;28;5150;-74
2023/03/31 11:01:24;;;;;;;;;;;;;;;5.19;63.68;99652.06;4992026;28;5099;-77
2023/03/31 11:04:16;;;;;;;;;;;;;;;5.17;63.68;99647.94;4992611;28;5074;-78
2023/03/31 11:07:08;;;;;;;;;;;;;;;5.22;63.68;99645.50;4991954;28;5090;-78
2023/03/31 11:10:00;;;;;;;;;;;;;;;5.19;63.76;99652.06;4993720;28;5020;-76
2023/03/31 11:12:52;;;;;;;;;;;;;;;5.23;63.55;99641.78;4993010;28;5162;-76
2023/03/31 11:15:44;;;;;;;;;;;;;;;5.20;63.70;99644.88;4992411;28;4980;-79
2023/03/31 11:18:36;;;;;;;;;;;;;;;5.21;63.86;99639.34;4990886;28;5234;-76
2023/03/31 11:21:28;;;;;;;;;;;;;;;5.20;63.94;99637.66;4990935;28;5132;-79
2023/03/31 11:24:20;;;;;;;;;;;;;;;5.21;63.84;99642.00;4992369;28;5038;-78
2023/03/31 11:27:11;;;;;;;;;;;;;;;5.19;64.03;99636.03;4990892;28;5067;-77
2023/03/31 11:30:03;;;;;;;;;;;;;;;5.20;63.85;99635.00;4991601;28;5071;-77
2023/03/31 11:32:55;;;;;;;;;;;;;;;5.23;63.91;99628.44;4992022;28;5108;-79
2023/03/31 11:35:46;;;;;;;;;;;;;;;5.24;63.98;99638.91;4991889;28;5091;-78
2023/03/31 11:38:38;;;;;;;;;;;;;;;5.21;63.82;99622.50;4993116;28;4868;-78
2023/03/31 11:41:29;;;;;;;;;;;;;;;5.24;63.88;99628.25;4992076;28;5117;-79
2023/03/31 11:44:21;;;;;;;;;;;;;;;5.23;63.97;99628.44;4991403;28;5151;-77
2023/03/31 11:47:13;;;;;;;;;;;;;;;5.27;63.75;99634.19;4990780;28;5146;-78
2023/03/31 11:50:05;;;;;;;;;;;;;;;5.29;63.89;99624.94;4990773;28;4890;-76
2023/03/31 11:52:57;;;;;;;;;;;;;;;5.32;63.76;99621.03;4990145;28;5055;-77
2023/03/31 11:55:49;;;;;;;;;;;;;;;5.27;64.17;99624.34;4991712;28;5084;-76
2023/03/31 11:58:41;;;;;;;;;;;;;;;5.29;64.21;99610.75;4991612;28;4813;-77
2023/03/31 12:01:33;;;;;;;;;;;;;;;5.31;63.92;99620.22;4992121;28;5098;-78
2023/03/31 12:04:25;;;;;;;;;;;;;;;5.27;64.14;99620.84;4990640;28;5031;-77
2023/03/31 12:07:17;;;;;;;;;;;;;;;5.28;64.13;99620.63;4986848;28;4721;-76
2023/03/31 12:10:09;;;;;;;;;;;;;;;5.27;64.11;99611.00;4990271;28;5349;-77
2023/03/31 12:13:01;;;;;;;;;;;;;;;5.30;64.13;99610.56;4989901;28;5043;-75
2023/03/31 12:15:53;;;;;;;;;;;;;;;5.31;64.18;99614.88;4991424;28;4761;-75
2023/03/31 12:18:45;;;;;;;;;;;;;;;5.36;64.05;99612.41;4989560;28;5103;-77
2023/03/31 12:21:37;;;;;;;;;;;;;;;5.34;64.01;99609.13;4991033;28;5098;-77
2023/03/31 12:24:29;;;;;;;;;;;;;;;5.36;64.07;99598.25;4990393;28;5110;-77
2023/03/31 12:27:21;;;;;;;;;;;;;;;5.36;64.16;99599.06;4991794;28;4792;-77
2023/03/31 12:30:13;;;;;;;;;;;;;;;5.37;64.17;99595.34;4990462;28;4143;-76
2023/03/31 12:33:05;;;;;;;;;;;;;;;5.39;64.20;99592.47;4985157;28;4001;-76
2023/03/31 12:35:57;;;;;;;;;;;;;;;5.38;64.03;99596.16;4988417;28;3984;-76
2023/03/31 12:38:48;;;;;;;;;;;;;;;5.40;64.25;99594.09;4984020;28;3967;-76
2023/03/31 12:41:40;;;;;;;;;;;;;;;5.37;64.20;99586.53;4982561;28;4790;-77
2023/03/31 12:44:32;;;;;;;;;;;;;;;5.38;64.39;99580.97;4983352;28;4855;-75
2023/03/31 12:47:24;;;;;;;;;;;;;;;5.41;64.32;99588.56;4978354;28;4082;-75
2023/03/31 12:50:16;;;;;;;;;;;;;;;5.44;64.33;99587.31;4980422;28;4850;-78
2023/03/31 12:53:08;;;;;;;;;;;;;;;5.43;64.39;99597.19;4989124;28;5225;-75
2023/03/31 12:56:00;;;;;;;;;;;;;;;5.46;64.40;99595.94;4990223;28;5078;-76
2023/03/31 12:58:52;;;;;;;;;;;;;;;5.43;64.29;99589.16;4989025;28;5039;-76
2023/03/31 13:01:44;;;;;;;;;;;;;;;5.45;64.46;99587.13;4990211;28;5107;-75
2023/03/31 13:04:36;;;;;;;;;;;;;;;5.45;64.54;99592.47;4989505;28;5111;-77
2023/03/31 13:07:28;;;;;;;;;;;;;;;5.48;64.27;99588.56;4987721;28;5076;-76
2023/03/31 13:10:20;;;;;;;;;;;;;;;5.50;64.42;99586.50;4987881;28;5109;-78
2023/03/31 13:13:12;;;;;;;;;;;;;;;5.47;64.51;99593.06;4987046;28;5066;-78
2023/03/31 13:16:03;;;;;;;;;;;;;;;5.52;64.49;99580.94;4987698;28;5050;-78
2023/03/31 13:18:55;;;;;;;;;;;;;;;5.50;64.56;99594.50;4981605;28;5012;-78
2023/03/31 13:21:47;;;;;;;;;;;;;;;5.51;64.64;99592.66;4986579;28;4987;-77
2023/03/31 13:24:39;;;;;;;;;;;;;;;5.50;64.58;99593.66;4988129;28;5056;-76
2023/03/31 13:27:31;;;;;;;;;;;;;;;5.50;64.79;99593.66;4987819;28;5064;-76
2023/03/31 13:30:23;;;;;;;;;;;;;;;5.52;64.84;99600.44;4988413;28;5097;-75
2023/03/31 13:33:15;;;;;;;;;;;;;;;5.53;65.03;99593.25;4983163;28;5133;-80
2023/03/31 13:36:07;;;;;;;;;;;;;;;5.57;64.75;99600.63;4975530;28;4850;-77
2023/03/31 13:38:59;;;;;;;;;;;;;;;5.56;64.73;99593.66;4988582;28;5337;-77
2023/03/31 13:41:51;;;;;;;;;;;;;;;5.56;64.86;99595.50;4987945;28;5071;-78
2023/03/31 13:44:43;;;;;;;;;;;;;;;5.59;64.68;99592.41;4987743;28;5084;-77
2023/03/31 13:47:35;;;;;;;;;;;;;;;5.59;64.98;99593.25;4987715;28;4933;-76
2023/03/31 13:50:27;;;;;;;;;;;;;;;5.59;64.90;99589.72;4987318;28;5052;-77
2023/03/31 13:53:19;;;;;;;;;;;;;;;5.60;64.88;99600.22;4985005;28;5043;-77
2023/03/31 13:56:11;;;;;;;;;;;;;;;5.64;65.02;99604.09;4974592;28;4679;-78
2023/03/31 13:59:03;;;;;;;;;;;;;;;5.62;64.97;99600.03;4975504;28;5002;-78
2023/03/31 14:01:55;;;;;;;;;;;;;;;5.64;64.95;99606.78;4974501;28;4907;-78
2023/03/31 14:04:47;;;;;;;;;;;;;;;5.68;64.74;99605.34;4978197;28;4587;-79
2023/03/31 14:07:39;;;;;;;;;;;;;;;5.68;65.08;99607.19;4976830;28;4821;-78
2023/03/31 14:10:31;;;;;;;;;;;;;;;5.68;64.96;99602.66;4975838;28;4862;-78
2023/03/31 14:13:23;;;;;;;;;;;;;;;5.70;65.09;99611.28;4979676;28;4771;-80
2023/03/31 14:16:15;;;;;;;;;;;;;;;5.72;65.23;99603.06;4989520;28;4853;-77
2023/03/31 14:19:07;;;;;;;;;;;;;;;5.72;65.07;99608.41;4989974;28;4851;-83
2023/03/31 14:21:59;;;;;;;;;;;;;;;5.74;64.98;99613.56;4987061;28;4875;-82
2023/03/31 14:24:51;;;;;;;;;;;;;;;5.75;65.07;99615.19;4989205;28;5029;-82
2023/03/31 14:27:43;;;;;;;;;;;;;;;5.76;65.15;99619.47;4986322;28;4731;-79
2023/03/31 14:30:37;;;;;;;;;;;;;;;5.76;65.25;99616.81;4986343;28;4778;-81
2023/03/31 14:33:29;;;;;;;;;;;;;;;5.78;65.05;99625.44;4989673;28;5024;-81
2023/03/31 14:36:20;;;;;;;;;;;;;;;5.80;65.14;99628.72;4986059;28;5207;-82
2023/03/31 14:39:12;;;;;;;;;;;;;;;5.80;65.12;99615.38;4986033;28;4964;-80
2023/03/31 14:42:04;;;;;;;;;;;;;;;5.80;65.11;99624.22;4991449;28;4818;-80
2023/03/31 14:44:56;;;;;;;;;;;;;;;5.83;65.31;99625.63;4989983;28;4885;-82
2023/03/31 14:47:48;;;;;;;;;;;;;;;5.83;65.12;99618.44;4990284;28;5207;-79
2023/03/31 14:50:40;;;;;;;;;;;;;;;5.86;65.02;99634.03;4989295;28;4668;-79
2023/03/31 14:53:32;;;;;;;;;;;;;;;5.88;64.96;99623.97;4992132;28;4800;-78
2023/03/31 14:56:24;;;;;;;;;;;;;;;5.89;65.13;99616.78;4992078;28;5210;-80
2023/03/31 14:59:19;;;;;;;;;;;;;;;5.90;65.29;99621.88;4992060;28;3947;-80
2023/03/31 15:02:11;;;;;;;;;;;;;;;5.91;65.16;99622.72;4988916;28;4577;-80
2023/03/31 15:05:03;;;;;;;;;;;;;;;5.95;65.07;99623.16;4992511;28;1687;-77
2023/03/31 15:07:56;;;;;;;;;;;;;;;5.95;65.18;99631.19;4988977;28;4106;-82
2023/03/31 15:10:48;;;;;;;;;;;;;;;5.98;65.00;99620.88;4988522;28;4793;-81
2023/03/31 15:13:40;;;;;;;;;;;;;;;6.01;65.14;99630.31;4984041;28;3976;-81
2023/03/31 15:16:32;;;;;;;;;;;;;;;6.00;65.06;99623.31;4985214;28;4617;-81
2023/03/31 15:19:24;;;;;;;;;;;;;;;6.01;65.07;99635.66;4981533;28;4105;-82